• Join FlightAware (Why Join?)
  • Login
  • US Flag 
10:53PM EST


 

Airport Tracker/Info


-or-


 

Live Flight TrackerFlight Track Log ✈ VH-KFX ✈ 20-Sep-2013 ✈ YPPD / PHE - YPKA / KTA

Flight Track Log - Related Links

Times and Time Zones

All times are in EDT time to prevent confusion due to time zone crossing. See the VH-KFX flight status page for this flight to view local times or setup timezone preferences in your user account.

Time Position Orientation Groundspeed Altitude Reporting Facility
EDT Latitude Longitude Course Direction KTS MPH feet Rate Location/Type
05:52AM -20.3820 118.6300 137° Southeast 116 133 100  Level FlightAware
05:52AM -20.3740 118.6210 313° West 128 147 700 1,920 Climbing FlightAware
05:52AM -20.3886 118.5687 60° Northeast 2,100 Descending Aus ATC (Calculated)
05:52AM -20.3650 118.6120 313° West 130 150 1,400 3,900 Climbing FlightAware
05:53AM -20.3630 118.6080 298° West 130 150 1,700 2,100 Climbing FlightAware
05:53AM -20.3690 118.5960 242° Southwest 138 159 2,400 1,740 Climbing FlightAware
05:53AM -20.4001 118.5075 72° East 200 1,380 Descending Aus ATC (Calculated)
05:53AM -20.3770 118.5850 232° Southwest 152 175 2,900 5,640 Climbing FlightAware
05:54AM -20.3840 118.5710 232° Southwest 155 178 3,600 1,740 Climbing FlightAware
05:54AM -20.4109 118.4499 78° East 200 1,440 Descending Aus ATC (Calculated)
05:54AM -20.3910 118.5530 247° West 165 190 4,200 13,800 Climbing FlightAware
05:54AM -20.3940 118.5370 259° West 171 197 4,800 1,800 Climbing FlightAware
05:55AM -20.3970 118.5200 259° West 173 199 5,400 1,800 Climbing FlightAware
05:55AM -20.4010 118.5030 256° West 172 198 6,000 1,800 Climbing FlightAware
05:55AM -20.4213 118.3921 79° East 1,860 Descending Aus ATC (Calculated)
05:55AM -20.4040 118.4860 259° West 170 196 6,700 10,560 Climbing FlightAware
05:56AM -20.4080 118.4650 259° West 170 196 7,400 1,740 Climbing FlightAware
05:56AM -20.4207 118.3953 80° East 1,800 Descending Aus ATC (Calculated)
05:56AM -20.4120 118.4490 255° West 172 198 8,000 19,080 Climbing FlightAware
05:56AM -20.4150 118.4330 255° West 171 197 8,600 1,800 Climbing FlightAware
05:57AM -20.4180 118.4160 259° West 168 193 9,200 1,620 Climbing FlightAware
05:57AM -20.4210 118.3960 261° West 173 199 9,800 1,680 Climbing FlightAware
05:58AM -20.4260 118.3690 259° West 167 192 10,800 1,680 Climbing FlightAware
05:58AM -20.4527 118.2218 80° East 1,560 Descending Aus ATC (Calculated)
05:58AM -20.4320 118.3430 256° West 163 188 11,700 15,360 Climbing FlightAware
05:59AM -20.4370 118.3130 256° West 159 183 12,800 1,620 Climbing FlightAware
06:00AM -20.4420 118.2850 259° West 154 177 13,700 1,500 Climbing FlightAware
06:00AM -20.4460 118.2610 260° West 153 176 14,500 1,320 Climbing FlightAware
06:01AM -20.4510 118.2350 258° West 156 180 15,200 1,200 Climbing FlightAware
06:01AM -20.4858 118.0459 79° East 200 1,320 Descending Aus ATC (Calculated)
06:01AM -20.4560 118.2080 259° West 159 183 16,000 23,100 Climbing FlightAware
06:02AM -20.4600 118.1810 259° West 186 214 16,000  Level FlightAware
06:02AM -20.4960 117.9906 79° East 200  Descending Aus ATC (Calculated)
06:02AM -20.4670 118.1460 259° West 203 234 16,000 21,060 Climbing FlightAware
06:03AM -20.4730 118.1090 260° West 207 238 16,000  Level FlightAware
06:04AM -20.4800 118.0750 258° West 205 236 16,000  Level FlightAware
06:04AM -20.4870 118.0390 258° West 204 235 16,000  Level FlightAware
06:05AM -20.4930 118.0050 259° West 204 235 16,000  Level FlightAware
06:05AM -20.5176 117.8727 79° East 200  Descending Aus ATC (Calculated)
06:05AM -20.4990 117.9730 259° West 204 235 16,000 15,240 Climbing FlightAware
06:06AM -20.5060 117.9380 259° West 205 236 16,000  Level FlightAware
06:06AM -20.5374 117.7569 80° East  Descending Aus ATC (Calculated)
06:06AM -20.5130 117.9020 259° West 206 237 16,000 15,720 Climbing FlightAware
06:07AM -20.5190 117.8650 260° West 207 238 16,000  Level FlightAware
06:08AM -20.5250 117.8320 259° West 208 239 16,000  Level FlightAware
06:08AM -20.5320 117.7940 259° West 209 241 16,000  Level FlightAware
06:09AM -20.5380 117.7610 259° West 209 241 16,000  Level FlightAware
06:09AM -20.5450 117.7250 258° West 209 241 16,000  Level FlightAware
06:10AM -20.5520 117.6880 259° West 210 242 16,000 -180 Level FlightAware
06:10AM -20.5790 117.5256 80° East -360 Descending Aus ATC (Calculated)
06:11AM -20.5580 117.6510 260° West 215 247 15,800 22,200 Climbing FlightAware
06:11AM -20.5912 117.4682 79° East 200 -1,080 Descending Aus ATC (Calculated)
06:11AM -20.5650 117.6140 260° West 233 268 15,200 20,400 Climbing FlightAware
06:12AM -20.5720 117.5750 260° West 243 280 14,500 -1,440 Descending FlightAware
06:12AM -20.5800 117.5310 259° West 249 287 13,600 -1,380 Descending FlightAware
06:13AM -20.5870 117.4900 260° West 255 293 12,900 -1,320 Descending FlightAware
06:13AM -20.5950 117.4450 259° West 259 298 12,100 -1,320 Descending FlightAware
06:13AM -20.6120 117.3526 79° East 200 -1,320 Descending Aus ATC (Calculated)
06:14AM -20.6040 117.3980 259° West 262 302 11,300 8,580 Climbing FlightAware
06:15AM -20.6120 117.3560 258° West 261 300 10,500 -1,440 Descending FlightAware
06:15AM -20.6190 117.3180 259° West 261 300 9,800 -1,440 Descending FlightAware
06:15AM -20.6230 117.2950 259° West 263 303 9,400 -1,440 Descending FlightAware
06:16AM -20.6270 117.2680 261° West 262 302 8,900 -1,500 Descending FlightAware
06:16AM -20.6310 117.2460 259° West 262 302 8,500 -1,500 Descending FlightAware
06:16AM -20.6360 117.2200 258° West 262 302 8,000 -1,380 Descending FlightAware
06:16AM -20.6409 117.1786 90° East -1,200 Descending Aus ATC (Calculated)
06:17AM -20.6410 117.1950 258° West 261 300 7,600 13,080 Climbing FlightAware
06:17AM -20.6440 117.1740 258° West 261 300 7,200 -1,440 Descending FlightAware
06:17AM -20.6480 117.1510 259° West 262 302 6,800 -1,320 Descending FlightAware
06:18AM -20.6530 117.1270 257° West 261 300 6,400 -1,440 Descending FlightAware
06:18AM -20.6580 117.0980 260° West 262 302 5,800 -1,440 Descending FlightAware
06:18AM -20.6640 117.0680 258° West 261 300 5,300 -1,440 Descending FlightAware
06:19AM -20.6680 117.0450 259° West 260 299 4,800 -1,500 Descending FlightAware
06:19AM -20.6730 117.0210 257° West 258 297 4,400 -1,320 Descending FlightAware
06:19AM -20.6800 116.9910 256° West 255 293 3,900 -1,320 Descending FlightAware
06:19AM -20.6740 117.0060 252° West 200 -1,320 Descending Aus ATC (Calculated)
06:20AM -20.6860 116.9660 256° West 250 288 3,400 4,500 Climbing FlightAware
06:20AM -20.6910 116.9450 256° West 239 275 3,000 -1,380 Descending FlightAware
06:20AM -20.6960 116.9240 256° West 218 251 2,600 -540 Descending FlightAware
06:21AM -20.7030 116.9000 253° West 218 251 2,600 -1,020 Level FlightAware
06:22AM -20.7070 116.8350 266° West 133 153 900 -1,200 Descending FlightAware
06:23AM -20.7080 116.8220 265° West 105 121 700 -480 Descending FlightAware
06:23AM -20.7090 116.8130 263° West 92 106 600 -540 Descending FlightAware
06:23AM -20.7100 116.8050 262° West 89 102 400 -600 Descending FlightAware
06:24AM -20.7110 116.7950 264° West 88 101 200 -420 Descending FlightAware
06:24AM -20.7120 116.7850 264° West 86 99 100 -180 Descending FlightAware
06:24AM -20.7130 116.7760 263° West 86 99 100  Level FlightAware
06:27AM -20.7151 116.7739 259° West  Level FlightAware Approximate
06:28AM -20.7122 116.7733 259° West  Level Estimated
06:29AM -20.7151 116.7739 259° West  Level FlightAware Approximate
06:30AM -20.7122 116.7733 259° West  Level Estimated
06:31AM -20.7151 116.7739 259° West  Level FlightAware Approximate
06:32AM -20.7122 116.7733 259° West  Level Estimated
06:33AM -20.7151 116.7739 259° West  Level FlightAware Approximate
06:34AM -20.7122 116.7733 259° West  Level Estimated
06:35AM -20.7151 116.7739 259° West  Level FlightAware Approximate
06:36AM -20.7122 116.7733 259° West  Level Estimated
06:37AM -20.7151 116.7739 259° West  Level FlightAware Approximate
06:38AM -20.7122 116.7733 259° West  Level Estimated
06:39AM -20.7151 116.7739 259° West  Level FlightAware Approximate
06:40AM -20.7122 116.7733 259° West  Level Estimated
06:41AM -20.7151 116.7739 259° West  Level FlightAware Approximate
06:42AM -20.7122 116.7733 259° West  Level Estimated
06:43AM -20.7151 116.7739 259° West  Level FlightAware Approximate
06:44AM -20.7122 116.7733 259° West  Level Estimated
06:45AM -20.7151 116.7739 259° West  Level FlightAware Approximate